Warning: Javascript must be enabled to use all the features on this page!


Page Loading - Please Wait...

* We've detected you're using a mobile device. Find our Next Generation Station Page here.
Click to hideNews Bulletins

Peak Streamflow for the Nation

USGS 04144500 SHIAWASSEE RIVER AT OWOSSO, MI

Shiawassee County, Michigan
Hydrologic Unit Code 04080203
Latitude  43°00'54", Longitude  84°10'48" NAD27
Drainage area 538  square miles
Gage datum 706.76 feet above NAVD88
Output formats
Table
Graph
Tab-separated file
peakfq (watstore) format
Reselect output format
Water
Year
Date Gage
Height
(feet)
Stream-
flow
(cfs)
1931 1931-03-31 4.10 294
1932 1932-05-12 6.51 1,630
1933 1933-04-01 7.30 1,400
1934 1934-04-04 5.166 1,440
1935 1935-03-11 5.98 1,960
1936 1936-03-12 4.672 1,110
1937 1937-04-22 6.46 2,310
1938 1938-02-18 8.10 3,670
1939 1939-04-17 5.72 1,720
1940 1940-03-30 6.701 2,300
1941 1941-01-03 5.77 1,760
1942 1942-03-17 8.74 4,230
1943 1943-06-02 8.35 3,940
1944 1944-02-27 6.98 2,750
1945 1945-05-18 8.06 3,670
1946 1946-03-06 7.45 3,070
1947 1947-04-06 10.35 6,240
1948 1948-03-20 10.27 6,150
1949 1949-02-17   4,0002
1950 1950-04-04 8.28 4,100
1951 1951-02-19 7.48 3,320
1952 1952-04-13 6.96 2,850
1953 1953-03-04 5.20 1,460
1954 1954-02-17 7.00 2,850
1955 1955-03-04 5.832 1,880
1956 1956-05-14 8.27 4,100
1957 1957-07-12 6.82 2,550
1958 1957-12-21 4.432 1,030
1959 1959-04-04 6.362 2,190
1960 1960-04-01 8.41 4,210
1961 1961-04-25 5.77 1,740
1962 1962-03-13 7.65 3,450
1963 1963-03-24 4.94 1,180
1964 1964-06-21 4.08 716
1965 1965-02-09 7.50 2,760
1966 1966-03-24 4.732 1,080
1967 1967-04-17 7.17 2,870
1968 1968-02-02 7.29 2,990
1969 1969-05-09 6.93 2,630
1970 1970-04-08 5.25 1,380
1971 1971-03-15 7.032 2,940
1972 1972-04-17 7.44 3,240
1973 1972-12-31 8.32 4,080
1974 1974-05-17 7.76 3,560
1975 1975-04-22 9.25 4,840
1976 1976-03-05 8.15 3,660
1977 1977-04-05 5.12 1,310
1978 1978-03-29 6.502 2,150
1979 1979-03-09 5.702 1,710
1980 1980-04-04 5.42 1,490
1981 1981-02-19 7.67 3,300
1982 1981-10-01 10.25 5,460
1983 1983-05-02 6.44 2,260
1984 1984-03-25 5.01 1,330
1985 1985-02-27 8.69 4,220
1986 1986-09-30 7.61 3,040
1987 1987-04-06 4.22 755
1988 1988-04-07 6.48 2,070
1989 1989-06-28 6.29 2,150
1990 1990-03-12 6.67 2,380
1991 1990-11-28 6.00 1,850
1992 1992-04-25 6.89 2,500
1993 1993-04-20 7.93 3,110
1994 1994-07-08 7.67 3,210
1995 1995-03-12 6.64 2,410
1996 1996-05-21 7.26 2,930
1997 1997-02-22 8.00 3,600
1998 1998-03-09 6.34 2,190
1999 1999-04-23 6.88 2,600
2000 2000-05-19 7.07 2,760
2001 2001-02-10   4,2002
2002 2002-03-10 5.86 1,650
2003 2003-04-08 5.232 1,320
2004 2004-05-24 9.04 4,220
2005 2005-01-13 7.25 2,770
2006 2006-03-14 6.46 2,140
2007 2007-06-05 6.172 1,910
2008 2008-09-15 7.25 2,630
2009 2008-12-28 8.00 3,260
2010 2010-04-08 6.16 1,870
2011 2011-05-15 7.61 2,970
2012 2012-05-04 5.28 1,300
2013 2013-04-19 8.38 3,620
2014 2014-05-15 8.45 3,820
2015 2015-06-23 6.12 1,950
2016 2016-04-01 6.60 2,320
2017 2017-04-07 8.71 4,050
2018 2018-02-21 9.10 4,420
2019 2019-06-20 6.91 2,530
2020 2020-05-19 8.60 3,960
2021 2021-06-27 7.192 2,630
?
  Peak Gage-Height Qualification Codes.
?
  Peak Streamflow Qualification Codes.